Terminal Aerodrome Forecast
Issued by NWS

Home | Current Version | Previous Version | Text Only | Print | Product List | Glossary On
Versions: 1 2 3 4 5 6 7 8 9 10 11 12 13 14
000
FTUS43 KILX 301000 AAB
TAFDEC
TAF AMD
KDEC 301006Z 3010/0106 04010KT 1/2SM FG VV002
     FM301300 05008KT 3SM BR OVC006
     FM301500 05009KT P6SM BKN020
     FM301800 07006KT P6SM SCT020=

USA.gov is the U.S. government's official web portal to all federal, state and local government web resources and services.